createdAt,value
2017-04-12T00:00:48.778Z,4.00
2017-04-12T00:01:47.268Z,4.00
2017-04-12T00:02:45.692Z,4.00
2017-04-12T00:03:44.195Z,4.10
2017-04-12T00:04:42.604Z,4.10
2017-04-12T00:05:41.746Z,4.10
2017-04-12T00:06:40.804Z,3.90
2017-04-12T00:07:39.208Z,3.80
2017-04-12T00:08:37.686Z,3.80
2017-04-12T00:09:37.185Z,3.80
2017-04-12T00:10:35.733Z,3.70
2017-04-12T00:11:34.933Z,3.60
2017-04-12T00:12:33.303Z,3.60
2017-04-12T00:13:32.312Z,3.60
2017-04-12T00:14:31.433Z,3.50
2017-04-12T00:15:29.917Z,3.40
2017-04-12T00:16:28.320Z,3.30
2017-04-12T00:17:26.743Z,3.30
2017-04-12T00:18:25.155Z,3.30
2017-04-12T00:19:23.602Z,3.50
2017-04-12T00:20:22.107Z,3.40
2017-04-12T00:21:21.159Z,3.30
2017-04-12T00:22:22.357Z,3.30
2017-04-12T00:23:21.643Z,3.20
2017-04-12T00:24:20.007Z,3.20
2017-04-12T00:25:18.406Z,3.30
2017-04-12T00:26:16.804Z,3.40
2017-04-12T00:27:15.257Z,3.40
2017-04-12T00:28:13.689Z,3.30
2017-04-12T00:29:12.077Z,3.20
2017-04-12T00:30:10.480Z,3.10
2017-04-12T00:31:08.894Z,3.10
2017-04-12T00:32:07.321Z,3.10
2017-04-12T00:33:06.548Z,3.10
2017-04-12T00:34:05.694Z,3.00
2017-04-12T00:35:04.079Z,3.10
2017-04-12T00:36:02.563Z,3.10
2017-04-12T00:37:00.942Z,3.10
2017-04-12T00:38:00.067Z,3.20
2017-04-12T00:38:58.488Z,3.20
2017-04-12T00:39:57.678Z,3.10
2017-04-12T00:40:56.806Z,3.10
2017-04-12T00:41:55.228Z,3.00
2017-04-12T00:42:53.631Z,2.90
2017-04-12T00:43:52.079Z,2.90
2017-04-12T00:44:51.321Z,2.80
2017-04-12T00:45:49.687Z,2.70
2017-04-12T00:46:48.143Z,2.70
2017-04-12T00:47:46.569Z,2.70
2017-04-12T00:48:45.099Z,2.70
2017-04-12T00:49:43.522Z,2.70
2017-04-12T00:50:41.969Z,2.70
2017-04-12T00:51:40.371Z,2.70
2017-04-12T00:52:39.449Z,2.80
2017-04-12T00:53:37.877Z,2.70
2017-04-12T00:54:36.315Z,2.70
2017-04-12T00:55:34.702Z,2.70
2017-04-12T00:56:33.165Z,2.80
2017-04-12T00:57:31.634Z,2.80
2017-04-12T00:58:30.099Z,2.90
2017-04-12T00:59:28.480Z,3.00
2017-04-12T01:00:26.912Z,3.10
2017-04-12T01:01:25.371Z,3.10
2017-04-12T01:02:24.698Z,3.10
2017-04-12T01:03:23.140Z,3.20
2017-04-12T01:04:21.582Z,3.20
2017-04-12T01:05:20.032Z,3.30
2017-04-12T01:06:18.425Z,3.20
2017-04-12T01:07:16.890Z,3.20
2017-04-12T01:08:15.300Z,3.30
2017-04-12T01:09:13.809Z,3.20
2017-04-12T01:10:12.354Z,3.10
2017-04-12T01:11:10.765Z,3.00
2017-04-12T01:12:09.216Z,2.90
2017-04-12T01:13:07.664Z,2.90
2017-04-12T01:14:06.097Z,2.90
2017-04-12T01:15:05.234Z,2.80
2017-04-12T01:16:03.629Z,2.80
2017-04-12T01:17:02.192Z,2.90
2017-04-12T01:18:00.635Z,2.90
2017-04-12T01:18:59.105Z,3.00
2017-04-12T01:19:57.554Z,3.00
2017-04-12T01:20:55.935Z,3.10
2017-04-12T01:21:54.308Z,3.20
2017-04-12T01:22:52.776Z,3.10
2017-04-12T01:23:51.198Z,3.00
2017-04-12T01:24:49.643Z,3.10
2017-04-12T01:25:48.064Z,3.10
2017-04-12T01:26:46.447Z,2.90
2017-04-12T01:27:44.835Z,2.60
2017-04-12T01:28:43.261Z,2.50
2017-04-12T01:29:42.403Z,2.30
2017-04-12T01:30:40.868Z,2.30
2017-04-12T01:31:39.248Z,2.20
2017-04-12T01:32:37.649Z,2.20
2017-04-12T01:33:36.078Z,2.10
2017-04-12T01:34:34.498Z,2.10
2017-04-12T01:35:32.889Z,2.10
2017-04-12T01:36:31.317Z,2.10
2017-04-12T01:37:29.697Z,2.00
2017-04-12T01:38:28.851Z,2.00
2017-04-12T01:39:27.302Z,2.20
2017-04-12T01:40:26.067Z,2.30
2017-04-12T01:41:24.881Z,2.30
2017-04-12T01:42:23.307Z,2.30
2017-04-12T01:43:21.738Z,2.30
2017-04-12T01:44:21.120Z,2.20
2017-04-12T01:45:19.576Z,2.20
2017-04-12T01:46:17.970Z,2.30
2017-04-12T01:47:16.343Z,2.40
2017-04-12T01:48:14.788Z,2.40
2017-04-12T01:49:13.185Z,2.50
2017-04-12T01:50:12.406Z,2.40
2017-04-12T01:51:10.791Z,2.30
2017-04-12T01:52:09.193Z,2.30
2017-04-12T01:53:07.645Z,2.20
2017-04-12T01:54:06.101Z,2.10
2017-04-12T01:55:04.491Z,2.20
2017-04-12T01:56:03.892Z,2.10
2017-04-12T01:57:03.239Z,2.20
2017-04-12T01:58:01.687Z,2.10
2017-04-12T01:59:00.819Z,2.10
2017-04-12T01:59:59.232Z,2.00
2017-04-12T02:00:58.381Z,2.00
2017-04-12T02:01:57.012Z,1.90
2017-04-12T02:02:55.486Z,1.90
2017-04-12T02:03:53.942Z,2.00
2017-04-12T02:04:52.407Z,2.00
2017-04-12T02:05:50.863Z,2.00
2017-04-12T02:06:49.286Z,2.00
2017-04-12T02:07:47.761Z,2.00
2017-04-12T02:08:46.230Z,2.00
2017-04-12T02:09:44.695Z,2.00
2017-04-12T02:10:43.170Z,1.90
2017-04-12T02:11:41.585Z,1.90
2017-04-12T02:12:40.062Z,1.90
2017-04-12T02:13:39.216Z,2.00
2017-04-12T02:14:37.595Z,2.10
2017-04-12T02:15:36.072Z,2.20
2017-04-12T02:16:34.531Z,2.30
2017-04-12T02:17:32.961Z,2.30
2017-04-12T02:18:31.676Z,2.30
2017-04-12T02:19:30.133Z,2.20
2017-04-12T02:20:28.524Z,2.30
2017-04-12T02:21:26.955Z,2.30
2017-04-12T02:22:25.659Z,2.30
2017-04-12T02:23:24.089Z,2.30
2017-04-12T02:24:22.505Z,2.20
2017-04-12T02:25:20.930Z,2.20
2017-04-12T02:26:19.698Z,2.30
2017-04-12T02:27:18.130Z,2.30
2017-04-12T02:28:16.559Z,2.20
2017-04-12T02:29:14.968Z,2.10
2017-04-12T02:30:13.387Z,2.10
2017-04-12T02:31:11.770Z,2.20
2017-04-12T02:32:10.567Z,2.30
2017-04-12T02:33:09.012Z,2.30
2017-04-12T02:34:07.386Z,2.30
2017-04-12T02:35:05.815Z,2.30
2017-04-12T02:36:05.351Z,2.30
2017-04-12T02:37:03.733Z,2.30
2017-04-12T02:38:02.170Z,2.30
2017-04-12T02:39:00.942Z,2.30
2017-04-12T02:40:00.143Z,2.30
2017-04-12T02:40:58.593Z,2.30
2017-04-12T02:41:57.010Z,2.10
2017-04-12T02:42:55.420Z,2.10
2017-04-12T02:43:54.598Z,2.00
2017-04-12T02:44:53.284Z,2.00
2017-04-12T02:45:52.417Z,2.00
2017-04-12T02:46:50.802Z,2.00
2017-04-12T02:47:49.231Z,2.00
2017-04-12T02:48:47.640Z,2.10
2017-04-12T02:49:46.029Z,2.20
2017-04-12T02:50:44.461Z,2.40
2017-04-12T02:51:42.907Z,2.50
2017-04-12T02:52:41.309Z,2.50
2017-04-12T02:53:39.789Z,2.50
2017-04-12T02:54:38.243Z,2.60
2017-04-12T02:55:36.671Z,2.40
2017-04-12T02:56:35.802Z,2.30
2017-04-12T02:57:34.183Z,2.10
2017-04-12T02:58:32.588Z,2.00
2017-04-12T02:59:31.011Z,2.00
2017-04-12T03:00:29.438Z,1.90
2017-04-12T03:01:29.197Z,1.90
2017-04-12T03:02:28.656Z,1.80
2017-04-12T03:03:27.087Z,1.80
2017-04-12T03:04:25.475Z,1.80
2017-04-12T03:05:23.877Z,1.80
2017-04-12T03:06:22.310Z,1.90
2017-04-12T03:07:21.617Z,1.90
2017-04-12T03:08:20.090Z,2.00
2017-04-12T03:09:18.530Z,2.00
2017-04-12T03:10:17.423Z,2.00
2017-04-12T03:11:16.582Z,2.00
2017-04-12T03:12:14.964Z,2.00
2017-04-12T03:13:13.393Z,2.10
2017-04-12T03:14:11.853Z,2.00
2017-04-12T03:15:10.595Z,2.10
2017-04-12T03:16:08.999Z,2.10
2017-04-12T03:17:07.378Z,2.10
2017-04-12T03:18:05.826Z,2.10
2017-04-12T03:19:04.211Z,2.10
2017-04-12T03:20:02.669Z,2.20
2017-04-12T03:21:01.071Z,2.40
2017-04-12T03:21:59.458Z,2.50
2017-04-12T03:22:57.920Z,2.30
2017-04-12T03:23:56.318Z,2.20
2017-04-12T03:24:54.706Z,2.10
2017-04-12T03:25:53.123Z,2.10
2017-04-12T03:26:51.578Z,2.10
2017-04-12T03:27:49.988Z,2.00
2017-04-12T03:28:49.119Z,2.00
2017-04-12T03:29:47.506Z,2.10
2017-04-12T03:30:45.930Z,2.10
2017-04-12T03:31:44.343Z,2.20
2017-04-12T03:32:43.707Z,2.20
2017-04-12T03:33:42.486Z,2.20
2017-04-12T03:34:40.893Z,2.20
2017-04-12T03:35:39.374Z,2.30
2017-04-12T03:36:37.757Z,2.30
2017-04-12T03:37:36.165Z,2.30
2017-04-12T03:38:34.573Z,2.30
2017-04-12T03:39:32.965Z,2.40
2017-04-12T03:40:31.379Z,2.30
2017-04-12T03:41:29.786Z,2.30
2017-04-12T03:42:28.230Z,2.40
2017-04-12T03:43:26.658Z,2.40
2017-04-12T03:44:25.786Z,2.30
2017-04-12T03:45:24.213Z,2.40
2017-04-12T03:46:23.230Z,2.40
2017-04-12T03:47:21.633Z,2.30
2017-04-12T03:48:20.077Z,2.40
2017-04-12T03:49:19.153Z,2.40
2017-04-12T03:50:17.550Z,2.30
2017-04-12T03:51:16.667Z,2.40
2017-04-12T03:52:16.599Z,2.40
2017-04-12T03:53:15.026Z,2.40
2017-04-12T03:54:13.510Z,2.40
2017-04-12T03:55:13.913Z,2.50
2017-04-12T03:56:12.355Z,2.50
2017-04-12T03:57:10.773Z,2.50
2017-04-12T03:58:11.905Z,2.40
2017-04-12T03:59:11.017Z,2.30
2017-04-12T04:00:09.493Z,2.10
2017-04-12T04:01:07.910Z,2.00
2017-04-12T04:02:07.185Z,1.90
2017-04-12T04:03:05.630Z,1.90
2017-04-12T04:04:04.032Z,1.80
2017-04-12T04:05:02.432Z,1.80
2017-04-12T04:06:00.829Z,1.80
2017-04-12T04:06:59.269Z,1.80
2017-04-12T04:07:58.397Z,1.80
2017-04-12T04:08:56.887Z,1.90
2017-04-12T04:09:55.339Z,2.00
2017-04-12T04:10:53.730Z,2.00
2017-04-12T04:11:52.192Z,2.10
2017-04-12T04:12:50.914Z,2.20
2017-04-12T04:13:50.037Z,2.10
2017-04-12T04:14:48.414Z,2.00
2017-04-12T04:15:46.861Z,1.90
2017-04-12T04:16:47.343Z,1.80
2017-04-12T04:17:46.107Z,1.70
2017-04-12T04:18:44.822Z,1.70
2017-04-12T04:19:43.199Z,1.60
2017-04-12T04:20:41.667Z,1.70
2017-04-12T04:21:40.063Z,1.60
2017-04-12T04:22:38.447Z,1.60
2017-04-12T04:23:36.845Z,1.50
2017-04-12T04:24:35.994Z,1.50
2017-04-12T04:25:35.154Z,1.50
2017-04-12T04:26:33.575Z,1.50
2017-04-12T04:27:31.962Z,1.50
2017-04-12T04:28:31.143Z,1.40
2017-04-12T04:29:30.326Z,1.40
2017-04-12T04:30:28.791Z,1.40
2017-04-12T04:31:27.211Z,1.50
2017-04-12T04:32:25.586Z,1.50
2017-04-12T04:33:24.005Z,1.50
2017-04-12T04:34:23.198Z,1.40
2017-04-12T04:35:22.334Z,1.50
2017-04-12T04:36:23.586Z,1.50
2017-04-12T04:37:21.999Z,1.50
2017-04-12T04:38:21.243Z,1.40
2017-04-12T04:39:19.620Z,1.50
2017-04-12T04:40:19.341Z,1.50
2017-04-12T04:41:17.806Z,1.50
2017-04-12T04:42:16.178Z,1.50
2017-04-12T04:43:14.607Z,1.50
2017-04-12T04:44:13.008Z,1.60
2017-04-12T04:45:11.439Z,1.60
2017-04-12T04:46:09.870Z,1.60
2017-04-12T04:47:09.047Z,1.60
2017-04-12T04:48:07.447Z,1.60
2017-04-12T04:49:05.844Z,1.60
2017-04-12T04:50:04.260Z,1.70
2017-04-12T04:51:03.468Z,1.70
2017-04-12T04:52:01.870Z,1.70
2017-04-12T04:53:00.296Z,1.80
2017-04-12T04:53:59.403Z,1.80
2017-04-12T04:54:58.117Z,1.90
2017-04-12T04:55:56.541Z,1.90
2017-04-12T04:56:55.711Z,2.00
2017-04-12T04:57:54.889Z,2.00
2017-04-12T04:58:53.263Z,2.00
2017-04-12T04:59:52.388Z,2.00
2017-04-12T05:00:50.768Z,2.00
2017-04-12T05:01:49.275Z,2.00
2017-04-12T05:02:47.679Z,2.10
2017-04-12T05:03:46.822Z,2.10
2017-04-12T05:04:45.259Z,2.10
2017-04-12T05:05:43.700Z,2.20
2017-04-12T05:06:42.537Z,2.30
2017-04-12T05:07:43.998Z,2.30
2017-04-12T05:08:44.197Z,2.30
2017-04-12T05:09:42.664Z,2.40
2017-04-12T05:10:41.080Z,2.40
2017-04-12T05:11:39.879Z,2.40
2017-04-12T05:12:38.274Z,2.40
2017-04-12T05:13:36.752Z,2.40
2017-04-12T05:14:35.239Z,2.40
2017-04-12T05:15:33.633Z,2.30
2017-04-12T05:16:32.087Z,2.30
2017-04-12T05:17:30.527Z,2.30
2017-04-12T05:18:29.558Z,2.40
2017-04-12T05:19:28.016Z,2.40
2017-04-12T05:20:27.201Z,2.40
2017-04-12T05:21:26.310Z,2.60
2017-04-12T05:22:24.764Z,2.70
2017-04-12T05:23:24.496Z,2.70
2017-04-12T05:24:22.907Z,2.70
2017-04-12T05:25:21.423Z,2.70
2017-04-12T05:26:20.158Z,2.70
2017-04-12T05:27:18.599Z,2.70
2017-04-12T05:28:17.002Z,2.80
2017-04-12T05:29:15.443Z,2.80
2017-04-12T05:30:13.895Z,2.80
2017-04-12T05:31:12.358Z,2.90
2017-04-12T05:32:11.460Z,2.90
2017-04-12T05:33:09.845Z,3.00
2017-04-12T05:34:08.236Z,3.00
2017-04-12T05:35:07.390Z,3.00
2017-04-12T05:36:05.829Z,3.20
2017-04-12T05:37:04.293Z,3.20
2017-04-12T05:38:03.677Z,3.20
2017-04-12T05:39:02.100Z,3.20
2017-04-12T05:40:00.516Z,3.30
2017-04-12T05:40:58.884Z,3.30
2017-04-12T05:41:57.315Z,3.30
2017-04-12T05:42:55.753Z,3.40
2017-04-12T05:43:54.159Z,3.40
2017-04-12T05:44:52.574Z,3.40
2017-04-12T05:45:50.977Z,3.40
2017-04-12T05:46:49.742Z,3.40
2017-04-12T05:47:48.151Z,3.50
2017-04-12T05:48:46.650Z,3.50
2017-04-12T05:49:45.119Z,3.60
2017-04-12T05:50:43.561Z,3.60
2017-04-12T05:51:41.988Z,3.60
2017-04-12T05:52:40.379Z,3.60
2017-04-12T05:53:38.874Z,3.70
2017-04-12T05:54:37.355Z,3.70
2017-04-12T05:55:35.785Z,3.80
2017-04-12T05:56:34.203Z,3.80
2017-04-12T05:57:32.605Z,3.90
2017-04-12T05:58:32.964Z,3.90
2017-04-12T05:59:31.680Z,4.00
2017-04-12T06:00:30.159Z,4.00
2017-04-12T06:01:28.948Z,4.00
2017-04-12T06:02:27.361Z,4.00
2017-04-12T06:03:26.337Z,4.10
2017-04-12T06:04:24.759Z,4.20
2017-04-12T06:05:23.528Z,4.20
2017-04-12T06:06:23.772Z,4.30
2017-04-12T06:07:22.195Z,4.40
2017-04-12T06:08:20.599Z,4.50
2017-04-12T06:09:19.354Z,4.60
2017-04-12T06:10:17.779Z,4.70
2017-04-12T06:11:16.194Z,4.80
2017-04-12T06:12:14.667Z,4.80
2017-04-12T06:13:13.064Z,4.80
2017-04-12T06:14:11.514Z,4.90
2017-04-12T06:15:09.950Z,5.00
2017-04-12T06:16:09.179Z,5.00
2017-04-12T06:17:07.603Z,5.10
2017-04-12T06:18:06.770Z,5.10
2017-04-12T06:19:05.227Z,5.10
2017-04-12T06:20:03.596Z,5.10
2017-04-12T06:21:02.335Z,5.10
2017-04-12T06:22:00.747Z,5.10
2017-04-12T06:22:59.135Z,5.10
2017-04-12T06:23:58.351Z,5.10
2017-04-12T06:24:56.761Z,5.20
2017-04-12T06:25:55.145Z,5.20
2017-04-12T06:26:54.270Z,5.20
2017-04-12T06:27:52.938Z,5.20
2017-04-12T06:28:52.126Z,5.20
2017-04-12T06:29:51.278Z,5.30
2017-04-12T06:30:49.683Z,5.30
2017-04-12T06:31:48.832Z,5.30
2017-04-12T06:32:47.155Z,5.40
2017-04-12T06:33:45.475Z,5.40
2017-04-12T06:34:43.856Z,5.40
2017-04-12T06:35:42.599Z,5.40
2017-04-12T06:36:41.031Z,5.50
2017-04-12T06:37:39.410Z,5.50
2017-04-12T06:38:37.770Z,5.50
2017-04-12T06:39:36.167Z,5.60
2017-04-12T06:40:34.555Z,5.60
2017-04-12T06:41:33.003Z,5.60
2017-04-12T06:42:31.392Z,5.70
2017-04-12T06:43:30.497Z,5.70
2017-04-12T06:44:28.877Z,5.90
2017-04-12T06:45:27.233Z,5.90
2017-04-12T06:46:25.553Z,6.00
2017-04-12T06:47:23.943Z,6.10
2017-04-12T06:48:22.353Z,6.10
2017-04-12T06:49:21.462Z,6.30
2017-04-12T06:50:19.933Z,6.30
2017-04-12T06:51:18.327Z,6.40
2017-04-12T06:52:16.671Z,6.40
2017-04-12T06:53:15.781Z,6.50
2017-04-12T06:54:15.033Z,6.50
2017-04-12T06:55:13.439Z,6.60
2017-04-12T06:56:11.821Z,6.80
2017-04-12T06:57:10.936Z,7.00
2017-04-12T06:58:09.266Z,7.20
2017-04-12T06:59:08.106Z,7.40
2017-04-12T07:00:06.582Z,7.40
2017-04-12T07:01:05.052Z,7.70
2017-04-12T07:02:03.401Z,7.90
2017-04-12T07:03:02.168Z,8.00
2017-04-12T07:04:00.964Z,8.10
2017-04-12T07:05:00.085Z,8.30
2017-04-12T07:05:58.481Z,8.60
2017-04-12T07:06:56.852Z,8.80
2017-04-12T07:07:55.190Z,8.90
2017-04-12T07:08:53.535Z,9.10
2017-04-12T07:09:51.942Z,9.20
2017-04-12T07:10:50.377Z,9.40
2017-04-12T07:11:48.847Z,9.50
2017-04-12T07:12:47.257Z,9.70
2017-04-12T07:13:45.638Z,9.90
2017-04-12T07:14:43.992Z,10.00
2017-04-12T07:15:42.361Z,10.00
2017-04-12T07:16:40.762Z,10.20
2017-04-12T07:17:39.810Z,10.20
2017-04-12T07:18:38.209Z,10.30
2017-04-12T07:19:36.551Z,10.50
2017-04-12T07:20:34.899Z,10.70
2017-04-12T07:21:33.264Z,10.80
2017-04-12T07:22:31.761Z,11.10
2017-04-12T07:23:30.196Z,11.20
2017-04-12T07:24:28.539Z,11.40
2017-04-12T07:25:27.937Z,11.60
2017-04-12T07:26:26.374Z,11.90
2017-04-12T07:27:24.706Z,12.10
2017-04-12T07:28:23.143Z,12.20
2017-04-12T07:29:21.504Z,12.40
2017-04-12T07:30:20.200Z,12.60
2017-04-12T07:31:18.561Z,12.70
2017-04-12T07:32:16.917Z,12.80
2017-04-12T07:33:16.030Z,13.00
2017-04-12T07:34:14.453Z,12.90
2017-04-12T07:35:13.648Z,13.00
2017-04-12T07:36:12.017Z,13.30
2017-04-12T07:37:10.394Z,13.50
2017-04-12T07:38:09.468Z,13.60
2017-04-12T07:39:07.809Z,13.80
2017-04-12T07:40:06.555Z,13.90
2017-04-12T07:41:04.939Z,14.00
2017-04-12T07:42:04.033Z,14.10
2017-04-12T07:43:02.438Z,14.40
2017-04-12T07:44:00.813Z,14.50
2017-04-12T07:44:59.934Z,14.60
2017-04-12T07:45:58.295Z,14.80
2017-04-12T07:46:56.662Z,15.00
2017-04-12T07:47:55.228Z,15.20
2017-04-12T07:48:53.960Z,15.30
2017-04-12T07:49:52.343Z,15.50
2017-04-12T07:50:51.532Z,15.70
2017-04-12T07:51:49.926Z,15.80
2017-04-12T07:52:48.306Z,15.90
2017-04-12T07:53:46.713Z,15.80
2017-04-12T07:54:45.098Z,15.80
2017-04-12T07:55:43.463Z,15.70
2017-04-12T07:56:41.855Z,15.80
2017-04-12T07:57:40.256Z,15.80
2017-04-12T07:58:38.664Z,15.70
2017-04-12T07:59:37.077Z,15.70
2017-04-12T08:00:35.444Z,15.20
2017-04-12T08:01:33.819Z,15.20
2017-04-12T08:02:32.517Z,15.30
2017-04-12T08:03:30.906Z,15.50
2017-04-12T08:04:29.280Z,15.60
2017-04-12T08:05:27.714Z,15.80
2017-04-12T08:06:26.107Z,15.90
2017-04-12T08:07:24.482Z,16.10
2017-04-12T08:08:22.934Z,16.10
2017-04-12T08:09:21.316Z,16.20
2017-04-12T08:10:19.705Z,16.30
2017-04-12T08:11:18.067Z,16.20
2017-04-12T08:12:16.415Z,16.20
2017-04-12T08:13:14.826Z,16.30
2017-04-12T08:14:13.664Z,16.50
2017-04-12T08:15:12.052Z,16.60
2017-04-12T08:16:10.465Z,16.80
2017-04-12T08:17:08.846Z,17.10
2017-04-12T08:18:07.269Z,17.30
2017-04-12T08:19:05.648Z,17.50
2017-04-12T08:20:04.086Z,17.70
2017-04-12T08:21:02.504Z,18.00
2017-04-12T08:22:00.950Z,17.90
2017-04-12T08:22:59.334Z,18.10
2017-04-12T08:23:58.403Z,18.20
2017-04-12T08:24:56.781Z,18.60
2017-04-12T08:25:55.150Z,18.70
2017-04-12T08:26:53.494Z,18.90
2017-04-12T08:27:51.848Z,19.10
2017-04-12T08:28:50.208Z,19.40
2017-04-12T08:29:48.602Z,19.70
2017-04-12T08:30:46.962Z,19.80
2017-04-12T08:31:45.327Z,20.00
2017-04-12T08:32:44.419Z,19.80
2017-04-12T08:33:42.772Z,19.70
2017-04-12T08:34:41.130Z,19.70
2017-04-12T08:35:39.539Z,19.80
2017-04-12T08:36:37.948Z,19.90
2017-04-12T08:37:36.375Z,20.00
2017-04-12T08:38:34.724Z,20.20
2017-04-12T08:39:33.128Z,20.40
2017-04-12T08:40:32.243Z,20.60
2017-04-12T08:41:30.617Z,20.70
2017-04-12T08:42:29.028Z,20.80
2017-04-12T08:43:27.433Z,20.80
2017-04-12T08:44:26.551Z,20.90
2017-04-12T08:45:25.948Z,21.20
2017-04-12T08:46:24.331Z,20.90
2017-04-12T08:47:22.914Z,21.10
2017-04-12T08:48:21.317Z,21.20
2017-04-12T08:49:19.707Z,21.20
2017-04-12T08:50:19.137Z,21.00
2017-04-12T08:51:17.468Z,21.00
2017-04-12T08:52:15.969Z,21.00
2017-04-12T08:53:15.364Z,21.00
2017-04-12T08:54:13.726Z,21.20
2017-04-12T08:55:12.092Z,21.10
2017-04-12T08:56:10.584Z,21.20
2017-04-12T08:57:08.931Z,21.40
2017-04-12T08:58:07.646Z,21.60
2017-04-12T08:59:06.027Z,21.60
2017-04-12T09:00:04.413Z,21.60
2017-04-12T09:01:02.772Z,21.70
2017-04-12T09:02:01.146Z,21.80
2017-04-12T09:02:59.517Z,21.80
2017-04-12T09:03:57.932Z,21.80
2017-04-12T09:04:57.332Z,21.90
2017-04-12T09:05:58.273Z,22.00
2017-04-12T09:06:56.626Z,22.20
2017-04-12T09:07:55.005Z,22.20
2017-04-12T09:08:53.380Z,22.30
2017-04-12T09:09:52.408Z,22.20
2017-04-12T09:10:50.794Z,22.20
2017-04-12T09:11:49.217Z,22.40
2017-04-12T09:12:49.773Z,22.30
2017-04-12T09:13:48.234Z,22.10
2017-04-12T09:14:46.603Z,22.10
2017-04-12T09:15:45.040Z,22.10
2017-04-12T09:16:45.437Z,22.20
2017-04-12T09:17:44.155Z,22.30
2017-04-12T09:18:42.519Z,22.30
2017-04-12T09:19:40.894Z,22.60
2017-04-12T09:20:39.322Z,22.90
2017-04-12T09:21:37.683Z,23.00
2017-04-12T09:22:36.042Z,23.30
2017-04-12T09:23:34.444Z,23.50
2017-04-12T09:24:32.804Z,23.70
2017-04-12T09:25:31.214Z,23.80
2017-04-12T09:26:29.604Z,23.80
2017-04-12T09:27:28.043Z,23.90
2017-04-12T09:28:26.500Z,24.10
2017-04-12T09:29:25.651Z,24.20
2017-04-12T09:30:24.016Z,24.50
2017-04-12T09:31:22.416Z,24.50
2017-04-12T09:32:20.775Z,24.40
2017-04-12T09:33:19.151Z,24.30
2017-04-12T09:34:17.520Z,24.10
2017-04-12T09:35:15.910Z,23.80
2017-04-12T09:36:14.312Z,24.00
2017-04-12T09:37:12.677Z,24.10
2017-04-12T09:38:11.005Z,23.90
2017-04-12T09:39:09.417Z,23.90
2017-04-12T09:40:09.517Z,24.10
2017-04-12T09:41:07.910Z,24.00
2017-04-12T09:42:06.359Z,24.00
2017-04-12T09:43:04.710Z,24.10
2017-04-12T09:44:03.184Z,24.30
2017-04-12T09:45:01.546Z,24.40
2017-04-12T09:45:59.955Z,24.20
2017-04-12T09:46:58.293Z,24.30
2017-04-12T09:47:56.668Z,24.50
2017-04-12T09:48:56.900Z,24.60
2017-04-12T09:49:55.342Z,24.80
2017-04-12T09:50:54.084Z,24.70
2017-04-12T09:51:53.217Z,24.80
2017-04-12T09:52:51.562Z,24.90
2017-04-12T09:53:50.056Z,25.10
2017-04-12T09:54:48.396Z,25.40
2017-04-12T09:55:46.776Z,25.70
2017-04-12T09:56:45.147Z,25.80
2017-04-12T09:57:43.609Z,25.90
2017-04-12T09:58:42.061Z,25.90
2017-04-12T09:59:41.223Z,25.70
2017-04-12T10:00:40.341Z,25.50
2017-04-12T10:01:38.731Z,25.40
2017-04-12T10:02:37.395Z,25.70
2017-04-12T10:03:35.811Z,25.50
2017-04-12T10:04:34.203Z,25.50
2017-04-12T10:05:32.623Z,25.60
2017-04-12T10:06:30.985Z,25.70
2017-04-12T10:07:30.811Z,25.80
2017-04-12T10:08:30.267Z,26.10
2017-04-12T10:09:28.706Z,25.90
2017-04-12T10:10:27.146Z,26.10
2017-04-12T10:11:25.545Z,26.30
2017-04-12T10:12:24.705Z,26.60
2017-04-12T10:13:23.429Z,26.60
2017-04-12T10:14:21.812Z,26.50
2017-04-12T10:15:20.228Z,26.50
2017-04-12T10:16:18.596Z,26.60
2017-04-12T10:17:18.035Z,26.60
2017-04-12T10:18:16.405Z,26.60
2017-04-12T10:19:14.869Z,26.50
2017-04-12T10:20:13.296Z,26.40
2017-04-12T10:21:11.653Z,26.00
2017-04-12T10:22:10.030Z,26.10
2017-04-12T10:23:08.445Z,26.20
2017-04-12T10:24:06.859Z,26.30
2017-04-12T10:25:05.244Z,25.80
2017-04-12T10:26:03.606Z,25.80
2017-04-12T10:27:01.997Z,25.90
2017-04-12T10:28:00.362Z,26.00
2017-04-12T10:28:58.822Z,26.40
2017-04-12T10:29:57.250Z,26.60
2017-04-12T10:30:55.990Z,26.80
2017-04-12T10:31:54.365Z,26.40
2017-04-12T10:32:52.728Z,26.70
2017-04-12T10:33:51.885Z,26.90
2017-04-12T10:34:50.254Z,27.00
2017-04-12T10:35:49.652Z,27.10
2017-04-12T10:36:48.016Z,27.20
2017-04-12T10:37:46.425Z,27.50
2017-04-12T10:38:44.801Z,27.40
2017-04-12T10:39:43.233Z,27.40
2017-04-12T10:40:41.586Z,27.10
2017-04-12T10:41:39.929Z,26.00
2017-04-12T10:42:38.321Z,25.70
2017-04-12T10:43:36.768Z,25.90
2017-04-12T10:44:35.514Z,26.10
2017-04-12T10:45:33.941Z,26.50
2017-04-12T10:46:32.368Z,26.60
2017-04-12T10:47:30.854Z,26.60
2017-04-12T10:48:29.233Z,26.40
2017-04-12T10:49:27.639Z,26.50
2017-04-12T10:50:25.984Z,26.60
2017-04-12T10:51:24.395Z,26.80
2017-04-12T10:52:23.512Z,27.00
2017-04-12T10:53:21.929Z,27.20
2017-04-12T10:54:20.410Z,27.20
2017-04-12T10:55:18.781Z,27.20
2017-04-12T10:56:17.151Z,27.20
2017-04-12T10:57:15.578Z,27.40
2017-04-12T10:58:13.967Z,27.50
2017-04-12T10:59:12.349Z,27.70
2017-04-12T11:00:10.715Z,27.60
2017-04-12T11:01:09.231Z,27.00
2017-04-12T11:02:07.593Z,26.20
2017-04-12T11:03:06.074Z,26.30
2017-04-12T11:04:04.447Z,26.40
2017-04-12T11:05:03.622Z,26.50
2017-04-12T11:06:01.957Z,26.80
2017-04-12T11:07:01.148Z,26.80
2017-04-12T11:07:59.484Z,26.80
2017-04-12T11:08:57.879Z,26.70
2017-04-12T11:09:57.373Z,26.60
2017-04-12T11:10:55.730Z,26.40
2017-04-12T11:11:54.119Z,26.20
2017-04-12T11:12:53.291Z,25.60
2017-04-12T11:13:51.671Z,25.60
2017-04-12T11:14:50.843Z,25.40
2017-04-12T11:15:49.229Z,25.40
2017-04-12T11:16:48.332Z,25.40
2017-04-12T11:17:46.830Z,25.10
2017-04-12T11:18:45.197Z,25.10
2017-04-12T11:19:43.599Z,24.50
2017-04-12T11:20:41.973Z,24.00
2017-04-12T11:21:40.370Z,23.90
2017-04-12T11:22:38.716Z,23.90
2017-04-12T11:23:37.079Z,23.90
2017-04-12T11:24:35.453Z,23.60
2017-04-12T11:25:33.846Z,23.70
2017-04-12T11:26:32.975Z,23.50
2017-04-12T11:27:31.957Z,23.50
2017-04-12T11:28:31.142Z,23.50
2017-04-12T11:29:29.524Z,23.50
2017-04-12T11:30:27.946Z,23.30
2017-04-12T11:31:26.294Z,23.30
2017-04-12T11:32:24.685Z,23.10
2017-04-12T11:33:23.044Z,23.00
2017-04-12T11:34:21.411Z,22.90
2017-04-12T11:35:19.820Z,22.90
2017-04-12T11:36:18.176Z,22.90
2017-04-12T11:37:16.587Z,22.90
2017-04-12T11:38:14.948Z,22.90
2017-04-12T11:39:15.788Z,22.90
2017-04-12T11:40:14.172Z,22.80
2017-04-12T11:41:13.330Z,22.40
2017-04-12T11:42:11.727Z,22.10
2017-04-12T11:43:11.496Z,21.70
2017-04-12T11:44:09.849Z,21.70
2017-04-12T11:45:08.287Z,21.80
2017-04-12T11:46:06.707Z,21.80
2017-04-12T11:47:05.111Z,21.80
2017-04-12T11:48:03.483Z,21.80
2017-04-12T11:49:03.490Z,21.90
2017-04-12T11:50:01.848Z,21.90
2017-04-12T11:51:00.936Z,22.00
2017-04-12T11:51:59.989Z,21.90
2017-04-12T11:52:58.430Z,21.90
2017-04-12T11:53:56.822Z,21.90
2017-04-12T11:54:55.163Z,21.80
2017-04-12T11:55:53.539Z,21.70
2017-04-12T11:56:51.904Z,21.70
2017-04-12T11:57:50.270Z,21.70
2017-04-12T11:58:48.734Z,21.40
2017-04-12T11:59:47.085Z,21.20
2017-04-12T12:00:45.500Z,20.90
2017-04-12T12:01:43.869Z,20.80
2017-04-12T12:02:42.925Z,20.70
2017-04-12T12:03:41.342Z,20.80
2017-04-12T12:04:40.828Z,20.90
2017-04-12T12:05:39.168Z,21.00
2017-04-12T12:06:38.255Z,21.10
2017-04-12T12:07:36.684Z,21.10
2017-04-12T12:08:35.067Z,20.80
2017-04-12T12:09:33.477Z,20.90
2017-04-12T12:10:31.933Z,20.70
2017-04-12T12:11:30.309Z,20.70
2017-04-12T12:12:28.720Z,20.70
2017-04-12T12:13:27.178Z,20.80
2017-04-12T12:14:25.544Z,20.70
2017-04-12T12:15:23.904Z,20.60
2017-04-12T12:16:22.349Z,20.70
2017-04-12T12:17:20.753Z,20.70
2017-04-12T12:18:19.104Z,20.60
2017-04-12T12:19:17.512Z,20.70
2017-04-12T12:20:16.618Z,20.70
2017-04-12T12:21:14.974Z,20.70
2017-04-12T12:22:13.345Z,20.60
2017-04-12T12:23:11.768Z,20.60
2017-04-12T12:24:10.120Z,20.50
2017-04-12T12:25:08.498Z,20.60
2017-04-12T12:26:06.885Z,20.60
2017-04-12T12:27:05.261Z,20.70
2017-04-12T12:28:04.016Z,20.70
2017-04-12T12:29:03.176Z,20.70
2017-04-12T12:30:01.619Z,20.60
2017-04-12T12:30:59.986Z,20.60
2017-04-12T12:31:58.397Z,20.50
2017-04-12T12:32:57.462Z,20.60
2017-04-12T12:33:55.923Z,20.60
2017-04-12T12:34:54.273Z,20.50
2017-04-12T12:35:53.425Z,20.50
2017-04-12T12:36:51.843Z,20.60
2017-04-12T12:37:50.207Z,20.50
2017-04-12T12:38:48.598Z,20.50
2017-04-12T12:39:46.982Z,20.50
2017-04-12T12:40:45.419Z,20.40
2017-04-12T12:41:43.849Z,20.20
2017-04-12T12:42:43.681Z,20.10
2017-04-12T12:43:42.037Z,20.10
2017-04-12T12:44:41.228Z,20.00
2017-04-12T12:45:40.423Z,19.80
2017-04-12T12:46:38.930Z,19.90
2017-04-12T12:47:37.304Z,19.90
2017-04-12T12:48:35.870Z,19.90
2017-04-12T12:49:35.265Z,19.80